createdAt,value
2022-12-03T00:00:19.755Z,4.60
2022-12-03T00:02:47.562Z,4.70
2022-12-03T00:05:15.342Z,4.70
2022-12-03T00:07:43.043Z,4.70
2022-12-03T00:10:11.384Z,4.70
2022-12-03T00:12:39.101Z,4.80
2022-12-03T00:15:09.932Z,4.80
2022-12-03T00:17:37.718Z,4.70
2022-12-03T00:20:06.757Z,4.80
2022-12-03T00:22:34.434Z,4.90
2022-12-03T00:25:02.087Z,4.80
2022-12-03T00:27:29.776Z,4.70
2022-12-03T00:29:57.465Z,4.70
2022-12-03T00:32:26.464Z,4.70
2022-12-03T00:34:54.386Z,4.60
2022-12-03T00:37:22.229Z,4.70
2022-12-03T00:39:50.366Z,4.80
2022-12-03T00:42:18.076Z,4.80
2022-12-03T00:44:45.741Z,4.60
2022-12-03T00:47:13.522Z,4.60
2022-12-03T00:49:42.648Z,4.60
2022-12-03T00:52:10.295Z,4.60
2022-12-03T00:54:38.002Z,4.50
2022-12-03T00:57:05.685Z,4.50
2022-12-03T00:59:33.384Z,4.50
2022-12-03T01:02:01.083Z,4.60
2022-12-03T01:04:28.891Z,4.60
2022-12-03T01:06:57.938Z,4.40
2022-12-03T01:09:25.609Z,4.50
2022-12-03T01:11:53.427Z,4.30
2022-12-03T01:14:21.397Z,4.40
2022-12-03T01:16:49.329Z,4.40
2022-12-03T01:19:17.873Z,4.30
2022-12-03T01:21:46.606Z,4.30
2022-12-03T01:24:16.016Z,4.20
2022-12-03T01:26:43.738Z,4.30
2022-12-03T01:29:11.516Z,4.30
2022-12-03T01:31:56.913Z,4.20
2022-12-03T01:34:24.886Z,4.10
2022-12-03T01:36:53.366Z,4.10
2022-12-03T01:39:22.387Z,4.10
2022-12-03T01:41:52.168Z,4.20
2022-12-03T01:44:24.142Z,4.10
2022-12-03T01:46:53.637Z,4.00
2022-12-03T01:49:24.320Z,4.30
2022-12-03T01:51:53.491Z,4.40
2022-12-03T01:54:27.189Z,4.20
2022-12-03T01:56:56.355Z,4.20
2022-12-03T01:59:31.913Z,4.10
2022-12-03T02:02:00.278Z,4.10
2022-12-03T02:04:28.218Z,4.10
2022-12-03T02:06:55.992Z,4.10
2022-12-03T02:09:25.016Z,4.00
2022-12-03T02:11:53.429Z,4.20
2022-12-03T02:14:22.812Z,4.10
2022-12-03T02:16:50.613Z,4.10
2022-12-03T02:19:25.184Z,4.20
2022-12-03T02:22:00.945Z,4.10
2022-12-03T02:24:36.730Z,4.10
2022-12-03T02:27:05.773Z,4.00
2022-12-03T02:29:33.478Z,3.90
2022-12-03T02:32:01.277Z,4.00
2022-12-03T02:34:40.400Z,3.90
2022-12-03T02:37:12.954Z,3.90
2022-12-03T02:39:45.286Z,4.10
2022-12-03T02:42:31.971Z,3.90
2022-12-03T02:45:05.307Z,3.90
2022-12-03T02:47:34.805Z,4.00
2022-12-03T02:50:02.993Z,3.90
2022-12-03T02:52:31.149Z,3.80
2022-12-03T02:54:59.333Z,3.80
2022-12-03T02:57:28.417Z,3.90
2022-12-03T02:59:56.347Z,3.80
2022-12-03T03:02:24.215Z,3.70
2022-12-03T03:04:52.441Z,3.70
2022-12-03T03:07:20.386Z,3.80
2022-12-03T03:09:48.311Z,3.70
2022-12-03T03:12:16.063Z,3.70
2022-12-03T03:14:45.174Z,3.90
2022-12-03T03:17:12.849Z,3.80
2022-12-03T03:19:40.549Z,3.90
2022-12-03T03:22:08.218Z,3.90
2022-12-03T03:24:35.919Z,3.90
2022-12-03T03:27:03.637Z,3.80
2022-12-03T03:29:32.229Z,4.00
2022-12-03T03:32:02.254Z,3.90
2022-12-03T03:34:31.249Z,4.00
2022-12-03T03:36:59.053Z,4.00
2022-12-03T03:39:26.767Z,4.00
2022-12-03T03:41:54.423Z,4.00
2022-12-03T03:44:22.351Z,3.90
2022-12-03T03:46:50.175Z,3.90
2022-12-03T03:49:19.243Z,4.00
2022-12-03T03:51:47.476Z,4.10
2022-12-03T03:54:15.679Z,4.10
2022-12-03T03:56:43.532Z,4.10
2022-12-03T03:59:11.261Z,4.20
2022-12-03T04:01:39.145Z,4.10
2022-12-03T04:04:15.170Z,4.00
2022-12-03T04:06:44.257Z,4.00
2022-12-03T04:09:11.992Z,4.10
2022-12-03T04:11:57.027Z,4.10
2022-12-03T04:14:24.888Z,4.10
2022-12-03T04:16:52.771Z,4.10
2022-12-03T04:19:20.457Z,4.10
2022-12-03T04:22:07.047Z,4.00
2022-12-03T04:24:34.697Z,4.10
2022-12-03T04:27:20.000Z,3.80
2022-12-03T04:29:47.646Z,3.60
2022-12-03T04:32:32.983Z,3.50
2022-12-03T04:35:18.512Z,3.70
2022-12-03T04:37:47.562Z,3.70
2022-12-03T04:40:29.229Z,3.50
2022-12-03T04:42:56.867Z,3.40
2022-12-03T04:45:24.751Z,3.50
2022-12-03T04:47:52.411Z,3.50
2022-12-03T04:50:20.098Z,3.50
2022-12-03T04:52:49.110Z,3.50
2022-12-03T04:55:16.872Z,3.40
2022-12-03T04:57:44.514Z,3.30
2022-12-03T05:00:13.591Z,3.30
2022-12-03T05:02:41.431Z,3.30
2022-12-03T05:05:10.753Z,3.30
2022-12-03T05:07:38.800Z,3.30
2022-12-03T05:10:09.071Z,3.50
2022-12-03T05:12:36.762Z,3.50
2022-12-03T05:15:05.414Z,3.50
2022-12-03T05:17:33.332Z,3.50
2022-12-03T05:20:18.880Z,3.60
2022-12-03T05:22:46.623Z,3.60
2022-12-03T05:25:15.844Z,3.60
2022-12-03T05:27:43.531Z,3.40
2022-12-03T05:30:11.898Z,3.50
2022-12-03T05:32:39.584Z,3.40
2022-12-03T05:35:07.851Z,3.40
2022-12-03T05:37:35.556Z,3.40
2022-12-03T05:40:03.358Z,3.60
2022-12-03T05:42:49.743Z,3.60
2022-12-03T05:45:18.518Z,3.70
2022-12-03T05:47:46.284Z,3.70
2022-12-03T05:50:14.121Z,3.60
2022-12-03T05:52:41.833Z,3.70
2022-12-03T05:55:10.363Z,3.50
2022-12-03T05:57:39.670Z,3.50
2022-12-03T06:00:10.039Z,3.50
2022-12-03T06:02:37.814Z,3.50
2022-12-03T06:05:06.402Z,3.50
2022-12-03T06:07:34.123Z,3.50
2022-12-03T06:10:01.935Z,3.50
2022-12-03T06:12:29.614Z,3.50
2022-12-03T06:14:59.558Z,3.50
2022-12-03T06:17:27.248Z,3.50
2022-12-03T06:19:54.930Z,3.40
2022-12-03T06:22:22.603Z,3.50
2022-12-03T06:24:50.659Z,3.50
2022-12-03T06:27:18.693Z,3.40
2022-12-03T06:29:46.362Z,3.50
2022-12-03T06:32:15.406Z,3.50
2022-12-03T06:34:43.144Z,3.40
2022-12-03T06:37:10.850Z,3.30
2022-12-03T06:39:38.562Z,3.30
2022-12-03T06:42:06.447Z,3.40
2022-12-03T06:44:34.188Z,3.50
2022-12-03T06:47:01.918Z,3.50
2022-12-03T06:49:30.968Z,3.60
2022-12-03T06:51:58.669Z,3.40
2022-12-03T06:54:26.367Z,3.40
2022-12-03T06:56:54.230Z,3.40
2022-12-03T06:59:21.873Z,3.30
2022-12-03T07:01:49.729Z,3.40
2022-12-03T07:04:17.492Z,3.40
2022-12-03T07:06:46.507Z,3.40
2022-12-03T07:09:16.296Z,3.50
2022-12-03T07:11:44.114Z,3.40
2022-12-03T07:14:12.146Z,3.30
2022-12-03T07:16:40.318Z,3.30
2022-12-03T07:19:08.439Z,3.40
2022-12-03T07:21:36.290Z,3.30
2022-12-03T07:24:05.650Z,3.30
2022-12-03T07:26:33.731Z,3.40
2022-12-03T07:29:01.486Z,3.40
2022-12-03T07:31:29.389Z,3.30
2022-12-03T07:33:57.096Z,3.30
2022-12-03T07:36:24.870Z,3.30
2022-12-03T07:38:52.589Z,3.30
2022-12-03T07:41:21.596Z,3.30
2022-12-03T07:43:49.299Z,3.30
2022-12-03T07:46:17.034Z,3.10
2022-12-03T07:48:44.797Z,3.00
2022-12-03T07:51:15.160Z,3.10
2022-12-03T07:53:43.378Z,3.20
2022-12-03T07:56:11.207Z,3.20
2022-12-03T07:58:40.274Z,3.20
2022-12-03T08:01:08.067Z,3.30
2022-12-03T08:03:35.841Z,3.20
2022-12-03T08:06:03.533Z,3.20
2022-12-03T08:08:31.225Z,3.20
2022-12-03T08:10:58.899Z,3.30
2022-12-03T08:13:26.579Z,3.10
2022-12-03T08:15:56.964Z,3.00
2022-12-03T08:18:24.713Z,2.80
2022-12-03T08:20:53.163Z,2.90
2022-12-03T08:23:22.822Z,2.90
2022-12-03T08:25:52.274Z,3.00
2022-12-03T08:28:21.558Z,3.00
2022-12-03T08:31:02.466Z,3.20
2022-12-03T08:33:33.626Z,3.20
2022-12-03T08:36:02.808Z,3.10
2022-12-03T08:38:30.773Z,3.00
2022-12-03T08:40:59.075Z,3.00
2022-12-03T08:43:28.586Z,3.00
2022-12-03T08:45:57.931Z,3.00
2022-12-03T08:48:29.636Z,3.00
2022-12-03T08:50:58.993Z,2.90
2022-12-03T08:53:37.749Z,2.90
2022-12-03T08:56:14.247Z,3.00
2022-12-03T08:58:44.389Z,2.90
2022-12-03T09:01:34.898Z,2.90
2022-12-03T09:04:20.428Z,3.10
2022-12-03T09:06:48.280Z,3.10
2022-12-03T09:09:16.033Z,3.00
2022-12-03T09:11:44.230Z,3.10
2022-12-03T09:14:18.104Z,3.20
2022-12-03T09:16:46.412Z,3.10
2022-12-03T09:19:16.113Z,3.10
2022-12-03T09:21:43.800Z,3.30
2022-12-03T09:24:11.570Z,3.10
2022-12-03T09:26:39.445Z,3.10
2022-12-03T09:29:11.915Z,3.00
2022-12-03T09:31:40.396Z,3.10
2022-12-03T09:34:08.321Z,3.20
2022-12-03T09:36:37.393Z,3.30
2022-12-03T09:39:05.315Z,3.30
2022-12-03T09:41:33.104Z,3.20
2022-12-03T09:44:05.184Z,3.30
2022-12-03T09:46:34.839Z,3.30
2022-12-03T09:49:03.272Z,3.30
2022-12-03T09:51:33.499Z,3.20
2022-12-03T09:54:03.844Z,3.30
2022-12-03T09:56:32.396Z,3.30
2022-12-03T09:59:00.609Z,3.30
2022-12-03T10:01:30.562Z,3.50
2022-12-03T10:03:59.459Z,3.60
2022-12-03T10:06:27.304Z,3.60
2022-12-03T10:08:56.292Z,3.40
2022-12-03T10:11:27.123Z,3.30
2022-12-03T10:13:56.363Z,3.50
2022-12-03T10:16:24.796Z,3.60
2022-12-03T10:18:54.436Z,3.70
2022-12-03T10:21:26.648Z,3.70
2022-12-03T10:24:19.008Z,3.70
2022-12-03T10:26:49.653Z,3.70
2022-12-03T10:29:20.296Z,3.80
2022-12-03T10:31:56.827Z,3.70
2022-12-03T10:34:31.508Z,3.70
2022-12-03T10:37:11.340Z,3.80
2022-12-03T10:39:57.553Z,3.80
2022-12-03T10:42:27.456Z,3.70
2022-12-03T10:45:16.890Z,3.80
2022-12-03T10:47:45.895Z,3.80
2022-12-03T10:50:19.399Z,3.70
2022-12-03T10:52:47.889Z,3.90
2022-12-03T10:55:16.902Z,3.80
2022-12-03T10:57:46.992Z,3.80
2022-12-03T11:00:17.368Z,3.80
2022-12-03T11:02:45.492Z,3.80
2022-12-03T11:05:15.289Z,3.70
2022-12-03T11:07:43.789Z,3.80
2022-12-03T11:10:57.178Z,3.60
2022-12-03T11:13:48.130Z,3.70
2022-12-03T11:17:10.136Z,3.80
2022-12-03T11:19:49.809Z,3.80
2022-12-03T11:22:46.002Z,3.80
2022-12-03T11:26:06.373Z,3.80
2022-12-03T11:29:00.774Z,3.80
2022-12-03T11:31:41.718Z,3.70
2022-12-03T11:34:56.482Z,3.80
2022-12-03T11:37:31.268Z,3.80
2022-12-03T11:44:54.178Z,3.80
2022-12-03T12:04:48.096Z,3.80
2022-12-03T12:12:01.706Z,4.00
2022-12-03T12:14:54.268Z,3.90
2022-12-03T12:22:05.561Z,3.90
2022-12-03T12:49:37.127Z,3.70
2022-12-03T12:56:57.554Z,3.50
2022-12-03T13:06:58.378Z,3.80
2022-12-03T13:09:27.903Z,3.60
2022-12-03T13:11:58.328Z,3.80
2022-12-03T13:14:27.632Z,3.80
2022-12-03T13:16:57.603Z,3.80
2022-12-03T13:19:27.420Z,3.70
2022-12-03T13:21:56.961Z,3.90
2022-12-03T13:24:32.689Z,3.80
2022-12-03T13:27:03.496Z,3.80
2022-12-03T13:29:33.174Z,3.80
2022-12-03T13:32:03.637Z,3.90
2022-12-03T13:34:33.738Z,3.90
2022-12-03T13:37:02.633Z,4.00
2022-12-03T13:39:34.960Z,3.90
2022-12-03T13:42:36.039Z,4.00
2022-12-03T13:45:07.642Z,4.00
2022-12-03T13:47:35.329Z,4.00
2022-12-03T13:50:08.314Z,4.10
2022-12-03T13:52:36.124Z,4.00
2022-12-03T13:55:08.222Z,4.00
2022-12-03T13:57:35.959Z,4.00
2022-12-03T14:00:04.657Z,3.90
2022-12-03T14:02:32.696Z,3.90
2022-12-03T14:05:00.939Z,4.00
2022-12-03T14:07:28.909Z,4.00
2022-12-03T14:09:57.077Z,3.90
2022-12-03T14:12:33.432Z,3.90
2022-12-03T14:15:01.351Z,3.90
2022-12-03T14:17:29.485Z,3.90
2022-12-03T14:19:57.423Z,3.90
2022-12-03T14:22:25.579Z,3.80
2022-12-03T14:24:53.791Z,3.70
2022-12-03T14:27:22.353Z,3.80
2022-12-03T14:29:52.493Z,3.70
2022-12-03T14:32:20.520Z,3.60
2022-12-03T14:34:48.210Z,3.80
2022-12-03T14:37:16.078Z,3.80
2022-12-03T14:39:43.762Z,3.90
2022-12-03T14:42:14.434Z,3.80
2022-12-03T14:44:43.187Z,4.00
2022-12-03T14:47:12.573Z,3.90
2022-12-03T14:49:40.821Z,3.90
2022-12-03T14:52:12.142Z,4.00
2022-12-03T14:54:41.978Z,4.00
2022-12-03T14:57:11.242Z,4.00
2022-12-03T14:59:38.950Z,4.00
2022-12-03T15:02:06.679Z,4.10
2022-12-03T15:04:35.816Z,3.90
2022-12-03T15:07:03.581Z,3.90
2022-12-03T15:09:31.370Z,4.00
2022-12-03T15:11:59.896Z,4.00
2022-12-03T15:14:27.748Z,4.10
2022-12-03T15:16:55.667Z,4.00
2022-12-03T15:19:23.444Z,3.80
2022-12-03T15:21:52.442Z,3.80
2022-12-03T15:24:20.111Z,3.90
2022-12-03T15:26:47.790Z,4.10
2022-12-03T15:29:15.464Z,4.00
2022-12-03T15:31:43.158Z,3.80
2022-12-03T15:34:10.874Z,3.90
2022-12-03T15:36:38.596Z,3.90
2022-12-03T15:39:07.724Z,4.00
2022-12-03T15:41:35.369Z,4.00
2022-12-03T15:44:03.352Z,4.00
2022-12-03T15:46:32.222Z,4.10
2022-12-03T15:49:00.082Z,4.00
2022-12-03T15:51:27.889Z,4.10
2022-12-03T15:53:55.609Z,3.90
2022-12-03T15:56:24.629Z,3.80
2022-12-03T15:58:53.448Z,4.00
2022-12-03T16:01:21.229Z,3.90
2022-12-03T16:03:48.979Z,3.90
2022-12-03T16:06:18.133Z,4.00
2022-12-03T16:08:46.039Z,3.90
2022-12-03T16:11:13.807Z,3.90
2022-12-03T16:13:42.873Z,3.90
2022-12-03T16:16:10.628Z,3.80
2022-12-03T16:18:38.378Z,3.80
2022-12-03T16:21:06.213Z,3.80
2022-12-03T16:23:33.993Z,3.80
2022-12-03T16:26:01.683Z,3.70
2022-12-03T16:28:29.391Z,3.60
2022-12-03T16:30:58.499Z,3.70
2022-12-03T16:33:28.006Z,3.70
2022-12-03T16:35:55.943Z,3.70
2022-12-03T16:38:23.858Z,3.70
2022-12-03T16:40:51.569Z,3.70
2022-12-03T16:43:19.562Z,3.80
2022-12-03T16:46:09.872Z,3.80
2022-12-03T16:48:38.945Z,3.90
2022-12-03T16:51:06.936Z,3.70
2022-12-03T16:53:35.052Z,3.70
2022-12-03T16:56:02.927Z,3.70
2022-12-03T16:58:30.674Z,3.80
2022-12-03T17:00:58.363Z,3.70
2022-12-03T17:03:32.048Z,3.70
2022-12-03T17:06:03.289Z,3.70
2022-12-03T17:08:31.473Z,3.70
2022-12-03T17:10:59.301Z,3.70
2022-12-03T17:13:27.067Z,3.80
2022-12-03T17:15:54.829Z,3.80
2022-12-03T17:18:22.864Z,3.60
2022-12-03T17:20:50.663Z,3.80
2022-12-03T17:23:19.726Z,3.70
2022-12-03T17:25:47.425Z,3.60
2022-12-03T17:28:15.193Z,3.60
2022-12-03T17:30:44.126Z,3.50
2022-12-03T17:33:11.905Z,3.40
2022-12-03T17:35:39.642Z,3.50
2022-12-03T17:38:09.023Z,3.50
2022-12-03T17:40:38.202Z,3.70
2022-12-03T17:43:05.931Z,3.70
2022-12-03T17:45:33.626Z,3.70
2022-12-03T17:48:01.473Z,3.60
2022-12-03T17:50:29.240Z,3.70
2022-12-03T17:52:57.003Z,3.70
2022-12-03T17:55:35.963Z,3.80
2022-12-03T17:58:07.556Z,3.80
2022-12-03T18:00:35.386Z,3.70
2022-12-03T18:03:03.131Z,3.80
2022-12-03T18:05:30.916Z,3.70
2022-12-03T18:07:58.621Z,3.70
2022-12-03T18:10:26.407Z,3.80
2022-12-03T18:12:59.829Z,3.80
2022-12-03T18:15:31.106Z,3.60
2022-12-03T18:17:58.932Z,3.70
2022-12-03T18:20:27.114Z,3.80
2022-12-03T18:22:54.881Z,3.90
2022-12-03T18:25:22.616Z,3.90
2022-12-03T18:27:50.294Z,3.90
2022-12-03T18:30:18.406Z,3.90
2022-12-03T18:32:47.760Z,3.80
2022-12-03T18:35:15.548Z,3.90
2022-12-03T18:37:43.340Z,3.90
2022-12-03T18:40:17.699Z,3.80
2022-12-03T18:42:45.617Z,3.60
2022-12-03T18:45:14.767Z,3.70
2022-12-03T18:47:42.839Z,3.70
2022-12-03T18:50:12.870Z,3.70
2022-12-03T18:52:40.758Z,3.80
2022-12-03T18:55:09.748Z,3.90
2022-12-03T18:57:37.397Z,3.90
2022-12-03T19:00:13.087Z,4.00
2022-12-03T19:05:30.970Z,3.80
2022-12-03T19:07:58.867Z,3.80
2022-12-03T19:10:27.019Z,3.70
2022-12-03T19:12:54.722Z,3.60
2022-12-03T19:15:22.814Z,3.50
2022-12-03T19:17:51.028Z,3.40
2022-12-03T19:20:19.064Z,3.50
2022-12-03T19:22:48.199Z,3.50
2022-12-03T19:25:16.223Z,3.60
2022-12-03T19:27:44.465Z,3.60
2022-12-03T19:30:13.049Z,3.60
2022-12-03T19:32:40.726Z,3.60
2022-12-03T19:35:11.330Z,3.60
2022-12-03T19:37:39.230Z,3.80
2022-12-03T19:40:11.255Z,3.80
2022-12-03T19:42:40.280Z,3.70
2022-12-03T19:45:08.871Z,3.70
2022-12-03T19:47:37.216Z,3.70
2022-12-03T19:50:05.987Z,3.70
2022-12-03T19:52:36.096Z,3.80
2022-12-03T19:55:03.873Z,3.70
2022-12-03T19:57:32.894Z,3.80
2022-12-03T20:00:01.143Z,3.70
2022-12-03T20:02:28.913Z,3.80
2022-12-03T20:04:56.833Z,3.60
2022-12-03T20:07:24.570Z,3.60
2022-12-03T20:09:52.801Z,3.60
2022-12-03T20:12:20.690Z,3.70
2022-12-03T20:14:50.159Z,3.70
2022-12-03T20:17:17.843Z,3.80
2022-12-03T20:19:45.573Z,3.70
2022-12-03T20:22:13.258Z,3.60
2022-12-03T20:24:40.978Z,3.60
2022-12-03T20:27:08.702Z,3.70
2022-12-03T20:29:36.393Z,3.60
2022-12-03T20:32:06.996Z,3.60
2022-12-03T20:34:35.835Z,3.60
2022-12-03T20:37:03.676Z,3.70
2022-12-03T20:39:31.368Z,3.60
2022-12-03T20:41:59.093Z,3.40
2022-12-03T20:44:26.960Z,3.50
2022-12-03T20:46:54.646Z,3.50
2022-12-03T20:49:24.224Z,3.60
2022-12-03T20:51:52.168Z,3.40
2022-12-03T20:54:19.937Z,3.50
2022-12-03T20:56:47.652Z,3.40
2022-12-03T20:59:16.912Z,3.50
2022-12-03T21:01:45.491Z,3.30
2022-12-03T21:04:14.602Z,3.50
2022-12-03T21:06:43.706Z,3.60
2022-12-03T21:09:13.101Z,3.60
2022-12-03T21:11:42.503Z,3.90
2022-12-03T21:14:12.046Z,3.90
2022-12-03T21:19:29.844Z,3.90
2022-12-03T21:22:01.364Z,3.80
2022-12-03T21:24:29.882Z,4.00
2022-12-03T21:26:57.813Z,3.80
2022-12-03T21:29:25.812Z,4.00
2022-12-03T21:31:53.688Z,4.00
2022-12-03T21:34:21.385Z,4.00
2022-12-03T21:36:49.154Z,4.00
2022-12-03T21:39:18.704Z,4.10
2022-12-03T21:42:22.328Z,3.90
2022-12-03T21:44:34.970Z,3.80
2022-12-03T21:47:10.312Z,3.60
2022-12-03T21:49:42.221Z,3.60
2022-12-03T21:52:10.172Z,3.60
2022-12-03T21:54:39.225Z,3.60
2022-12-03T21:57:06.942Z,3.60
2022-12-03T21:59:34.696Z,3.50
2022-12-03T22:02:02.545Z,3.50
2022-12-03T22:04:30.397Z,3.30
2022-12-03T22:06:58.075Z,3.60
2022-12-03T22:09:26.958Z,3.70
2022-12-03T22:11:59.149Z,3.60
2022-12-03T22:14:27.775Z,3.50
2022-12-03T22:16:55.550Z,3.50
2022-12-03T22:19:24.079Z,3.50
2022-12-03T22:21:51.891Z,3.50
2022-12-03T22:24:19.969Z,3.70
2022-12-03T22:26:48.067Z,3.50
2022-12-03T22:29:17.083Z,3.70
2022-12-03T22:31:44.819Z,3.60
2022-12-03T22:34:12.525Z,3.70
2022-12-03T22:36:40.173Z,3.70
2022-12-03T22:39:07.917Z,3.80
2022-12-03T22:41:35.615Z,3.90
2022-12-03T22:44:03.264Z,3.90
2022-12-03T22:46:32.579Z,3.70
2022-12-03T22:49:06.442Z,3.70
2022-12-03T22:51:35.692Z,3.60
2022-12-03T22:54:03.415Z,3.70
2022-12-03T22:56:31.922Z,3.60
2022-12-03T22:59:00.103Z,3.70
2022-12-03T23:01:29.708Z,3.70
2022-12-03T23:03:59.028Z,3.70
2022-12-03T23:06:27.387Z,3.80
2022-12-03T23:08:55.800Z,3.60
2022-12-03T23:11:24.012Z,3.60
2022-12-03T23:13:51.736Z,3.50
2022-12-03T23:16:21.285Z,3.70
2022-12-03T23:18:49.450Z,3.70
2022-12-03T23:21:27.073Z,3.80
2022-12-03T23:23:57.004Z,3.60
2022-12-03T23:26:24.699Z,3.70
2022-12-03T23:28:52.476Z,3.70
2022-12-03T23:31:22.982Z,3.50
2022-12-03T23:33:51.548Z,3.50
2022-12-03T23:36:21.488Z,3.50
2022-12-03T23:38:49.492Z,3.40
2022-12-03T23:41:19.535Z,3.50
2022-12-03T23:43:47.561Z,3.60
2022-12-03T23:46:16.818Z,3.50
2022-12-03T23:48:45.334Z,3.50
2022-12-03T23:51:15.344Z,3.50
2022-12-03T23:53:44.740Z,3.60
2022-12-03T23:56:15.466Z,3.60
2022-12-03T23:58:43.875Z,3.60
